createdAt,value
2022-12-18T00:00:36.082Z,-6.95
2022-12-18T00:01:36.057Z,-7.07
2022-12-18T00:02:36.155Z,-6.95
2022-12-18T00:03:36.159Z,-7.06
2022-12-18T00:04:35.998Z,-7.07
2022-12-18T00:05:36.134Z,-7.10
2022-12-18T00:06:36.000Z,-7.06
2022-12-18T00:07:35.997Z,-7.10
2022-12-18T00:08:35.964Z,-7.18
2022-12-18T00:09:39.487Z,-7.14
2022-12-18T00:10:35.933Z,-7.18
2022-12-18T00:11:35.939Z,-7.18
2022-12-18T00:12:35.972Z,-7.14
2022-12-18T00:13:36.406Z,-7.25
2022-12-18T00:14:35.896Z,-7.30
2022-12-18T00:15:35.904Z,-7.30
2022-12-18T00:16:35.956Z,-7.27
2022-12-18T00:17:35.880Z,-7.39
2022-12-18T00:18:36.232Z,-7.34
2022-12-18T00:19:35.869Z,-7.39
2022-12-18T00:20:35.868Z,-7.41
2022-12-18T00:21:35.835Z,-7.46
2022-12-18T00:22:35.842Z,-7.46
2022-12-18T00:23:36.152Z,-7.62
2022-12-18T00:24:35.817Z,-7.66
2022-12-18T00:25:35.806Z,-7.74
2022-12-18T00:26:35.820Z,-7.80
2022-12-18T00:27:35.776Z,-7.78
2022-12-18T00:28:35.761Z,-7.81
2022-12-18T00:29:35.746Z,-7.74
2022-12-18T00:30:35.765Z,-7.81
2022-12-18T00:31:35.844Z,-7.75
2022-12-18T00:32:35.721Z,-7.78
2022-12-18T00:33:35.977Z,-7.71
2022-12-18T00:34:35.696Z,-7.64
2022-12-18T00:35:35.694Z,-7.70
2022-12-18T00:36:35.719Z,-7.55
2022-12-18T00:37:35.676Z,-7.55
2022-12-18T00:38:35.652Z,-7.59
2022-12-18T00:39:35.667Z,-7.53
2022-12-18T00:40:35.662Z,-7.39
2022-12-18T00:41:35.638Z,-7.39
2022-12-18T00:42:35.641Z,-7.41
2022-12-18T00:43:35.920Z,-7.30
2022-12-18T00:44:35.590Z,-7.24
2022-12-18T00:45:35.656Z,-7.27
2022-12-18T00:46:35.603Z,-7.18
2022-12-18T00:47:35.579Z,-7.24
2022-12-18T00:48:35.556Z,-7.17
2022-12-18T00:49:35.545Z,-7.17
2022-12-18T00:50:35.525Z,-7.21
2022-12-18T00:51:35.538Z,-7.07
2022-12-18T00:52:35.536Z,-7.07
2022-12-18T00:53:35.956Z,-7.10
2022-12-18T00:54:35.500Z,-7.20
2022-12-18T00:55:35.513Z,-7.07
2022-12-18T00:56:35.508Z,-7.09
2022-12-18T00:57:35.467Z,-7.14
2022-12-18T00:58:35.498Z,-7.07
2022-12-18T00:59:35.468Z,-7.09
2022-12-18T01:00:35.488Z,-6.96
2022-12-18T01:01:35.543Z,-7.03
2022-12-18T01:02:35.589Z,-7.13
2022-12-18T01:03:35.593Z,-7.18
2022-12-18T01:04:35.383Z,-7.07
2022-12-18T01:05:35.451Z,-7.10
2022-12-18T01:07:07.312Z,-7.13
2022-12-18T01:07:35.356Z,-7.20
2022-12-18T01:08:35.350Z,-7.14
2022-12-18T01:09:35.344Z,-7.17
2022-12-18T01:10:35.370Z,-7.14
2022-12-18T01:11:35.345Z,-7.21
2022-12-18T01:12:35.346Z,-7.20
2022-12-18T01:13:35.524Z,-7.25
2022-12-18T01:14:35.284Z,-7.13
2022-12-18T01:15:35.306Z,-7.02
2022-12-18T01:16:35.323Z,-7.27
2022-12-18T01:17:35.323Z,-7.24
2022-12-18T01:18:35.271Z,-7.34
2022-12-18T01:19:35.288Z,-7.32
2022-12-18T01:20:35.260Z,-7.34
2022-12-18T01:21:35.244Z,-7.45
2022-12-18T01:22:36.239Z,-7.60
2022-12-18T01:23:35.443Z,-7.66
2022-12-18T01:24:35.198Z,-7.71
2022-12-18T01:25:35.201Z,-7.75
2022-12-18T01:26:35.181Z,-7.73
2022-12-18T01:27:35.185Z,-7.83
2022-12-18T01:28:35.160Z,-7.71
2022-12-18T01:29:35.163Z,-7.66
2022-12-18T01:30:35.167Z,-7.66
2022-12-18T01:31:35.193Z,-7.67
2022-12-18T01:32:35.127Z,-7.71
2022-12-18T01:33:35.371Z,-7.70
2022-12-18T01:34:35.094Z,-7.62
2022-12-18T01:35:35.121Z,-7.48
2022-12-18T01:36:35.162Z,-7.48
2022-12-18T01:37:35.071Z,-7.52
2022-12-18T01:38:35.055Z,-7.50
2022-12-18T01:39:35.041Z,-7.38
2022-12-18T01:40:35.059Z,-7.38
2022-12-18T01:41:35.079Z,-7.36
2022-12-18T01:42:35.010Z,-7.46
2022-12-18T01:43:35.206Z,-7.25
2022-12-18T01:44:35.016Z,-7.42
2022-12-18T01:45:35.069Z,-7.39
2022-12-18T01:46:35.001Z,-7.34
2022-12-18T01:47:34.959Z,-7.48
2022-12-18T01:48:34.953Z,-7.50
2022-12-18T01:49:34.954Z,-7.38
2022-12-18T01:50:34.969Z,-7.48
2022-12-18T01:51:34.936Z,-7.55
2022-12-18T01:52:34.902Z,-7.62
2022-12-18T01:53:35.098Z,-7.53
2022-12-18T01:54:34.902Z,-7.59
2022-12-18T01:55:34.893Z,-7.48
2022-12-18T01:56:34.878Z,-7.56
2022-12-18T01:57:34.862Z,-7.59
2022-12-18T01:58:34.872Z,-7.60
2022-12-18T01:59:34.853Z,-7.48
2022-12-18T02:00:34.837Z,-7.57
2022-12-18T02:01:35.072Z,-7.62
2022-12-18T02:02:34.899Z,-7.53
2022-12-18T02:03:34.843Z,-7.53
2022-12-18T02:04:34.797Z,-7.46
2022-12-18T02:05:34.795Z,-7.50
2022-12-18T02:06:34.778Z,-7.50
2022-12-18T02:07:34.788Z,-7.62
2022-12-18T02:08:34.782Z,-7.66
2022-12-18T02:09:34.796Z,-7.64
2022-12-18T02:10:34.742Z,-7.71
2022-12-18T02:11:34.753Z,-7.71
2022-12-18T02:12:34.800Z,-7.70
2022-12-18T02:13:34.878Z,-7.75
2022-12-18T02:14:34.707Z,-7.70
2022-12-18T02:15:34.706Z,-7.62
2022-12-18T02:16:34.796Z,-7.67
2022-12-18T02:17:34.664Z,-7.62
2022-12-18T02:18:34.640Z,-7.64
2022-12-18T02:19:34.652Z,-7.63
2022-12-18T02:20:34.647Z,-7.59
2022-12-18T02:21:34.629Z,-7.53
2022-12-18T02:22:34.628Z,-7.46
2022-12-18T02:23:34.620Z,-7.45
2022-12-18T02:24:34.582Z,-7.48
2022-12-18T02:25:34.606Z,-7.46
2022-12-18T02:26:34.567Z,-7.39
2022-12-18T02:27:34.557Z,-7.50
2022-12-18T02:28:34.647Z,-7.57
2022-12-18T02:29:35.553Z,-7.64
2022-12-18T02:30:34.592Z,-7.66
2022-12-18T02:31:34.538Z,-7.63
2022-12-18T02:32:34.527Z,-7.64
2022-12-18T02:33:34.518Z,-7.81
2022-12-18T02:34:34.492Z,-7.78
2022-12-18T02:35:34.490Z,-7.78
2022-12-18T02:36:34.499Z,-7.91
2022-12-18T02:37:34.454Z,-7.83
2022-12-18T02:38:34.456Z,-7.84
2022-12-18T02:39:34.450Z,-7.78
2022-12-18T02:40:34.429Z,-7.78
2022-12-18T02:41:34.446Z,-7.75
2022-12-18T02:42:34.415Z,-7.73
2022-12-18T02:43:34.396Z,-7.73
2022-12-18T02:44:34.469Z,-7.67
2022-12-18T02:45:34.412Z,-7.74
2022-12-18T02:46:34.361Z,-7.73
2022-12-18T02:47:34.381Z,-7.75
2022-12-18T02:48:34.363Z,-7.74
2022-12-18T02:49:34.331Z,-7.70
2022-12-18T02:50:34.371Z,-7.66
2022-12-18T02:51:34.332Z,-7.73
2022-12-18T02:52:34.307Z,-7.74
2022-12-18T02:53:34.302Z,-7.70
2022-12-18T02:54:34.284Z,-7.74
2022-12-18T02:55:34.310Z,-7.74
2022-12-18T02:56:34.288Z,-7.85
2022-12-18T02:57:34.301Z,-7.81
2022-12-18T02:58:34.277Z,-7.74
2022-12-18T02:59:34.261Z,-7.78
2022-12-18T03:00:34.314Z,-7.95
2022-12-18T03:01:34.349Z,-8.08
2022-12-18T03:02:34.281Z,-8.05
2022-12-18T03:03:34.236Z,-8.02
2022-12-18T03:04:34.199Z,-8.11
2022-12-18T03:05:34.228Z,-7.98
2022-12-18T03:06:34.163Z,-8.10
2022-12-18T03:07:34.172Z,-8.15
2022-12-18T03:08:34.187Z,-8.17
2022-12-18T03:09:34.148Z,-8.18
2022-12-18T03:10:34.159Z,-8.31
2022-12-18T03:11:34.154Z,-8.36
2022-12-18T03:12:34.112Z,-8.53
2022-12-18T03:13:34.111Z,-8.42
2022-12-18T03:14:34.091Z,-8.34
2022-12-18T03:15:34.086Z,-8.29
2022-12-18T03:16:34.195Z,-8.35
2022-12-18T03:17:34.079Z,-8.39
2022-12-18T03:18:34.048Z,-8.28
2022-12-18T03:19:34.147Z,-8.28
2022-12-18T03:20:34.053Z,-8.23
2022-12-18T03:21:34.061Z,-8.28
2022-12-18T03:22:34.022Z,-8.34
2022-12-18T03:23:34.000Z,-8.21
2022-12-18T03:24:34.036Z,-8.26
2022-12-18T03:25:33.972Z,-8.29
2022-12-18T03:26:33.977Z,-8.34
2022-12-18T03:27:33.993Z,-8.31
2022-12-18T03:28:33.945Z,-8.26
2022-12-18T03:29:34.069Z,-8.29
2022-12-18T03:30:33.971Z,-8.42
2022-12-18T03:31:33.945Z,-8.39
2022-12-18T03:32:34.011Z,-8.42
2022-12-18T03:33:33.943Z,-8.36
2022-12-18T03:34:33.921Z,-8.34
2022-12-18T03:35:33.898Z,-8.38
2022-12-18T03:36:33.914Z,-8.32
2022-12-18T03:37:33.876Z,-8.23
2022-12-18T03:38:33.847Z,-8.18
2022-12-18T03:39:33.887Z,-8.34
2022-12-18T03:40:33.847Z,-8.35
2022-12-18T03:41:33.828Z,-8.35
2022-12-18T03:42:33.853Z,-8.39
2022-12-18T03:43:33.836Z,-8.35
2022-12-18T03:44:33.806Z,-8.28
2022-12-18T03:45:33.823Z,-8.24
2022-12-18T03:46:34.808Z,-8.31
2022-12-18T03:47:33.781Z,-8.42
2022-12-18T03:48:33.921Z,-8.46
2022-12-18T03:49:33.791Z,-8.39
2022-12-18T03:50:33.731Z,-8.38
2022-12-18T03:51:33.811Z,-8.38
2022-12-18T03:52:33.713Z,-8.35
2022-12-18T03:53:33.733Z,-8.42
2022-12-18T03:54:33.709Z,-8.44
2022-12-18T03:55:33.691Z,-8.44
2022-12-18T03:56:33.693Z,-8.41
2022-12-18T03:57:33.667Z,-8.42
2022-12-18T03:58:33.664Z,-8.56
2022-12-18T03:59:33.660Z,-8.56
2022-12-18T04:00:33.655Z,-8.64
2022-12-18T04:01:33.682Z,-8.65
2022-12-18T04:02:33.791Z,-8.67
2022-12-18T04:03:33.739Z,-8.57
2022-12-18T04:04:33.687Z,-8.62
2022-12-18T04:05:33.607Z,-8.60
2022-12-18T04:06:33.576Z,-8.50
2022-12-18T04:07:33.556Z,-8.59
2022-12-18T04:08:33.558Z,-8.53
2022-12-18T04:09:33.552Z,-8.52
2022-12-18T04:10:33.541Z,-8.50
2022-12-18T04:11:33.538Z,-8.38
2022-12-18T04:12:33.502Z,-8.39
2022-12-18T04:13:33.508Z,-8.42
2022-12-18T04:14:33.539Z,-8.32
2022-12-18T04:15:33.568Z,-8.44
2022-12-18T04:16:33.479Z,-8.34
2022-12-18T04:17:33.467Z,-8.36
2022-12-18T04:18:33.483Z,-8.36
2022-12-18T04:19:33.444Z,-8.44
2022-12-18T04:20:33.543Z,-8.38
2022-12-18T04:21:33.448Z,-8.42
2022-12-18T04:22:33.413Z,-8.54
2022-12-18T04:23:33.486Z,-8.56
2022-12-18T04:24:33.402Z,-8.56
2022-12-18T04:25:33.395Z,-8.60
2022-12-18T04:26:33.374Z,-8.67
2022-12-18T04:27:34.390Z,-8.62
2022-12-18T04:28:33.359Z,-8.70
2022-12-18T04:29:33.337Z,-8.62
2022-12-18T04:30:33.375Z,-8.68
2022-12-18T04:31:33.420Z,-8.64
2022-12-18T04:32:33.349Z,-8.56
2022-12-18T04:33:33.292Z,-8.54
2022-12-18T04:34:34.302Z,-8.67
2022-12-18T04:35:33.301Z,-8.50
2022-12-18T04:36:33.366Z,-8.56
2022-12-18T04:37:33.280Z,-8.64
2022-12-18T04:38:33.302Z,-8.77
2022-12-18T04:39:33.252Z,-8.89
2022-12-18T04:40:33.301Z,-8.78
2022-12-18T04:41:33.263Z,-8.84
2022-12-18T04:42:33.210Z,-8.92
2022-12-18T04:43:33.210Z,-8.77
2022-12-18T04:44:33.206Z,-8.94
2022-12-18T04:45:33.228Z,-8.86
2022-12-18T04:46:33.253Z,-8.84
2022-12-18T04:47:33.190Z,-8.85
2022-12-18T04:48:33.202Z,-8.77
2022-12-18T04:49:33.152Z,-8.82
2022-12-18T04:50:33.190Z,-8.84
2022-12-18T04:51:33.146Z,-8.82
2022-12-18T04:52:33.203Z,-8.85
2022-12-18T04:53:33.160Z,-8.92
2022-12-18T04:54:33.114Z,-9.03
2022-12-18T04:55:33.122Z,-8.96
2022-12-18T04:56:33.070Z,-8.89
2022-12-18T04:57:33.075Z,-8.95
2022-12-18T04:58:33.077Z,-8.95
2022-12-18T04:59:33.052Z,-8.91
2022-12-18T05:00:33.062Z,-8.95
2022-12-18T05:01:35.107Z,-8.96
2022-12-18T05:02:34.159Z,-8.94
2022-12-18T05:03:33.050Z,-8.98
2022-12-18T05:04:32.997Z,-9.12
2022-12-18T05:05:33.007Z,-9.07
2022-12-18T05:06:32.980Z,-9.04
2022-12-18T05:07:32.972Z,-9.04
2022-12-18T05:08:33.036Z,-9.06
2022-12-18T05:09:32.959Z,-9.07
2022-12-18T05:10:38.020Z,-9.10
2022-12-18T05:11:34.944Z,-9.13
2022-12-18T05:12:32.913Z,-9.09
2022-12-18T05:13:32.938Z,-9.20
2022-12-18T05:14:32.906Z,-9.17
2022-12-18T05:15:32.899Z,-9.16
2022-12-18T05:16:32.958Z,-9.27
2022-12-18T05:17:32.867Z,-9.25
2022-12-18T05:18:32.852Z,-9.27
2022-12-18T05:19:32.852Z,-9.33
2022-12-18T05:20:32.874Z,-9.31
2022-12-18T05:21:32.842Z,-9.28
2022-12-18T05:22:32.826Z,-9.21
2022-12-18T05:23:32.808Z,-9.23
2022-12-18T05:24:32.901Z,-9.28
2022-12-18T05:25:32.774Z,-9.16
2022-12-18T05:26:32.815Z,-9.24
2022-12-18T05:27:32.782Z,-9.30
2022-12-18T05:28:32.748Z,-9.37
2022-12-18T05:29:32.765Z,-9.34
2022-12-18T05:30:32.737Z,-9.43
2022-12-18T05:31:38.919Z,-9.41
2022-12-18T05:32:34.770Z,-9.37
2022-12-18T05:33:32.736Z,-9.35
2022-12-18T05:34:32.683Z,-9.34
2022-12-18T05:35:32.685Z,-9.43
2022-12-18T05:36:32.691Z,-9.34
2022-12-18T05:37:33.604Z,-9.35
2022-12-18T05:38:32.665Z,-9.47
2022-12-18T05:39:32.637Z,-9.37
2022-12-18T05:40:32.711Z,-9.47
2022-12-18T05:41:32.663Z,-9.43
2022-12-18T05:42:32.625Z,-9.45
2022-12-18T05:43:32.608Z,-9.34
2022-12-18T05:44:32.602Z,-9.31
2022-12-18T05:45:32.622Z,-9.45
2022-12-18T05:46:32.637Z,-9.37
2022-12-18T05:47:32.584Z,-9.46
2022-12-18T05:48:32.561Z,-9.43
2022-12-18T05:49:32.552Z,-9.41
2022-12-18T05:50:32.533Z,-9.39
2022-12-18T05:51:32.561Z,-9.37
2022-12-18T05:52:32.503Z,-9.37
2022-12-18T05:53:32.513Z,-9.35
2022-12-18T05:54:32.526Z,-9.58
2022-12-18T05:55:32.481Z,-9.61
2022-12-18T05:56:32.558Z,-9.47
2022-12-18T05:57:32.497Z,-9.52
2022-12-18T05:58:32.452Z,-9.45
2022-12-18T05:59:32.473Z,-9.47
2022-12-18T06:00:32.446Z,-9.50
2022-12-18T06:01:32.484Z,-9.47
2022-12-18T06:02:32.466Z,-9.63
2022-12-18T06:03:34.172Z,-9.60
2022-12-18T06:04:33.402Z,-9.63
2022-12-18T06:05:32.399Z,-9.61
2022-12-18T06:06:32.380Z,-9.63
2022-12-18T06:07:32.374Z,-9.63
2022-12-18T06:08:32.382Z,-9.67
2022-12-18T06:09:32.345Z,-9.68
2022-12-18T06:10:32.342Z,-9.76
2022-12-18T06:11:32.337Z,-9.64
2022-12-18T06:12:32.421Z,-9.81
2022-12-18T06:13:32.328Z,-9.76
2022-12-18T06:14:32.304Z,-9.91
2022-12-18T06:15:32.314Z,-9.85
2022-12-18T06:16:32.363Z,-9.89
2022-12-18T06:17:32.277Z,-10.00
2022-12-18T06:18:32.280Z,-9.97
2022-12-18T06:19:32.258Z,-9.96
2022-12-18T06:20:33.841Z,-10.14
2022-12-18T06:21:33.234Z,-10.09
2022-12-18T06:22:32.263Z,-10.25
2022-12-18T06:23:32.204Z,-10.25
2022-12-18T06:24:32.257Z,-10.30
2022-12-18T06:25:32.204Z,-10.39
2022-12-18T06:26:32.217Z,-10.31
2022-12-18T06:27:32.186Z,-10.38
2022-12-18T06:28:32.244Z,-10.42
2022-12-18T06:29:32.143Z,-10.60
2022-12-18T06:30:32.160Z,-10.62
2022-12-18T06:31:32.185Z,-10.57
2022-12-18T06:32:32.131Z,-10.59
2022-12-18T06:33:32.123Z,-10.62
2022-12-18T06:34:32.103Z,-10.65
2022-12-18T06:35:32.088Z,-10.59
2022-12-18T06:36:32.102Z,-10.62
2022-12-18T06:37:32.091Z,-10.73
2022-12-18T06:38:32.055Z,-10.74
2022-12-18T06:39:32.062Z,-10.69
2022-12-18T06:40:32.059Z,-10.80
2022-12-18T06:41:32.038Z,-10.93
2022-12-18T06:42:32.056Z,-11.02
2022-12-18T06:43:32.013Z,-10.99
2022-12-18T06:44:32.099Z,-11.06
2022-12-18T06:45:32.041Z,-11.06
2022-12-18T06:46:31.976Z,-10.96
2022-12-18T06:47:31.987Z,-10.95
2022-12-18T06:48:31.973Z,-10.93
2022-12-18T06:49:31.955Z,-10.85
2022-12-18T06:50:31.970Z,-10.92
2022-12-18T06:51:31.935Z,-10.87
2022-12-18T06:52:31.924Z,-10.83
2022-12-18T06:53:31.969Z,-10.81
2022-12-18T06:54:31.942Z,-10.73
2022-12-18T06:55:31.910Z,-10.74
2022-12-18T06:56:31.888Z,-10.78
2022-12-18T06:57:31.928Z,-10.74
2022-12-18T06:58:31.892Z,-10.78
2022-12-18T06:59:31.851Z,-10.78
2022-12-18T07:00:31.926Z,-10.77
2022-12-18T07:01:31.999Z,-10.77
2022-12-18T07:02:31.925Z,-10.74
2022-12-18T07:03:31.862Z,-10.74
2022-12-18T07:04:31.851Z,-10.80
2022-12-18T07:05:31.830Z,-10.69
2022-12-18T07:06:31.806Z,-10.74
2022-12-18T07:08:03.700Z,-10.74
2022-12-18T07:08:31.795Z,-10.80
2022-12-18T07:09:31.755Z,-10.81
2022-12-18T07:10:31.777Z,-10.83
2022-12-18T07:11:31.768Z,-10.87
2022-12-18T07:12:31.758Z,-10.77
2022-12-18T07:13:31.739Z,-10.77
2022-12-18T07:14:31.727Z,-10.76
2022-12-18T07:15:31.722Z,-10.74
2022-12-18T07:16:31.870Z,-10.73
2022-12-18T07:17:31.662Z,-10.73
2022-12-18T07:18:31.667Z,-10.57
2022-12-18T07:19:31.688Z,-10.73
2022-12-18T07:20:31.634Z,-10.69
2022-12-18T07:21:31.677Z,-10.67
2022-12-18T07:22:31.683Z,-10.71
2022-12-18T07:23:31.610Z,-10.69
2022-12-18T07:24:31.627Z,-10.74
2022-12-18T07:25:31.633Z,-10.71
2022-12-18T07:26:31.609Z,-10.74
2022-12-18T07:27:31.565Z,-10.74
2022-12-18T07:28:31.590Z,-10.71
2022-12-18T07:29:31.541Z,-10.77
2022-12-18T07:30:31.561Z,-10.71
2022-12-18T07:31:31.628Z,-10.74
2022-12-18T07:32:31.626Z,-10.80
2022-12-18T07:33:31.507Z,-10.77
2022-12-18T07:34:31.544Z,-10.74
2022-12-18T07:35:31.527Z,-10.66
2022-12-18T07:36:31.486Z,-10.69
2022-12-18T07:37:31.508Z,-10.78
2022-12-18T07:38:31.496Z,-10.60
2022-12-18T07:39:31.491Z,-10.62
2022-12-18T07:40:31.503Z,-10.67
2022-12-18T07:41:31.478Z,-10.63
2022-12-18T07:42:31.444Z,-10.56
2022-12-18T07:43:31.434Z,-10.69
2022-12-18T07:44:31.415Z,-10.62
2022-12-18T07:45:31.473Z,-10.55
2022-12-18T07:46:31.412Z,-10.59
2022-12-18T07:47:31.434Z,-10.45
2022-12-18T07:48:31.476Z,-10.44
2022-12-18T07:49:31.424Z,-10.39
2022-12-18T07:50:31.372Z,-10.46
2022-12-18T07:51:31.338Z,-10.36
2022-12-18T07:52:31.379Z,-10.46
2022-12-18T07:53:31.382Z,-10.35
2022-12-18T07:54:31.325Z,-10.39
2022-12-18T07:55:47.941Z,-10.25
2022-12-18T07:56:33.322Z,-10.20
2022-12-18T07:57:49.975Z,-10.15
2022-12-18T07:58:33.278Z,-10.24
2022-12-18T07:59:31.305Z,-10.17
2022-12-18T08:00:31.248Z,-10.07
2022-12-18T08:01:31.404Z,-10.06
2022-12-18T08:02:31.338Z,-10.02
2022-12-18T08:03:31.220Z,-10.07
2022-12-18T08:04:31.304Z,-9.91
2022-12-18T08:05:31.251Z,-9.89
2022-12-18T08:06:31.228Z,-9.97
2022-12-18T08:07:31.181Z,-9.99
2022-12-18T08:08:31.237Z,-9.88
2022-12-18T08:09:31.164Z,-9.79
2022-12-18T08:10:31.172Z,-9.73
2022-12-18T08:11:31.182Z,-9.81
2022-12-18T08:12:31.148Z,-9.76
2022-12-18T08:13:31.133Z,-9.74
2022-12-18T08:14:31.138Z,-9.61
2022-12-18T08:15:31.139Z,-9.60
2022-12-18T08:16:31.136Z,-9.50
2022-12-18T08:17:31.084Z,-9.47
2022-12-18T08:18:31.125Z,-9.37
2022-12-18T08:19:31.107Z,-9.34
2022-12-18T08:20:31.162Z,-9.28
2022-12-18T08:21:31.044Z,-9.30
2022-12-18T08:22:31.049Z,-9.24
2022-12-18T08:23:31.064Z,-9.24
2022-12-18T08:24:32.008Z,-9.17
2022-12-18T08:25:31.032Z,-9.21
2022-12-18T08:26:31.016Z,-9.17
2022-12-18T08:27:30.997Z,-9.09
2022-12-18T08:28:31.010Z,-9.06
2022-12-18T08:29:31.013Z,-9.04
2022-12-18T08:30:31.008Z,-8.94
2022-12-18T08:31:31.037Z,-8.99
2022-12-18T08:32:30.964Z,-9.03
2022-12-18T08:33:30.939Z,-9.04
2022-12-18T08:34:30.932Z,-8.92
2022-12-18T08:35:36.389Z,-8.89
2022-12-18T08:36:32.998Z,-8.86
2022-12-18T08:37:30.897Z,-8.84
2022-12-18T08:38:30.895Z,-8.73
2022-12-18T08:39:30.900Z,-8.68
2022-12-18T08:40:30.859Z,-8.64
2022-12-18T08:41:30.879Z,-8.67
2022-12-18T08:42:30.847Z,-8.75
2022-12-18T08:43:30.825Z,-8.70
2022-12-18T08:44:30.848Z,-8.73
2022-12-18T08:45:30.836Z,-8.65
2022-12-18T08:46:30.861Z,-8.78
2022-12-18T08:47:30.771Z,-8.50
2022-12-18T08:48:30.800Z,-8.59
2022-12-18T08:49:30.799Z,-8.44
2022-12-18T08:50:30.784Z,-8.46
2022-12-18T08:51:30.740Z,-8.38
2022-12-18T08:52:30.830Z,-8.36
2022-12-18T08:53:36.593Z,-8.35
2022-12-18T08:54:32.730Z,-8.39
2022-12-18T08:55:30.708Z,-8.31
2022-12-18T08:56:30.726Z,-8.23
2022-12-18T08:57:30.680Z,-8.18
2022-12-18T08:58:30.682Z,-8.20
2022-12-18T08:59:30.701Z,-8.18
2022-12-18T09:00:30.668Z,-8.14
2022-12-18T09:01:30.791Z,-8.11
2022-12-18T09:02:30.820Z,-7.99
2022-12-18T09:03:30.793Z,-7.92
2022-12-18T09:04:30.618Z,-7.89
2022-12-18T09:05:30.624Z,-7.81
2022-12-18T09:06:31.621Z,-7.85
2022-12-18T09:07:30.690Z,-7.94
2022-12-18T09:08:30.663Z,-7.85
2022-12-18T09:09:30.587Z,-7.77
2022-12-18T09:10:30.566Z,-7.81
2022-12-18T09:11:30.539Z,-7.64
2022-12-18T09:12:31.563Z,-7.75
2022-12-18T09:13:30.513Z,-7.71
2022-12-18T09:14:30.506Z,-7.78
2022-12-18T09:15:30.535Z,-7.78
2022-12-18T09:16:32.617Z,-7.85
2022-12-18T09:17:31.554Z,-7.77
2022-12-18T09:18:30.505Z,-7.74
2022-12-18T09:19:30.482Z,-7.73
2022-12-18T09:20:30.421Z,-7.62
2022-12-18T09:21:30.475Z,-7.67
2022-12-18T09:22:30.445Z,-7.63
2022-12-18T09:23:30.433Z,-7.67
2022-12-18T09:24:36.387Z,-7.67
2022-12-18T09:25:31.517Z,-7.57
2022-12-18T09:26:30.415Z,-7.56
2022-12-18T09:27:30.390Z,-7.48
2022-12-18T09:28:30.563Z,-7.30
2022-12-18T09:29:30.360Z,-7.38
2022-12-18T09:30:30.418Z,-7.42
2022-12-18T09:31:30.363Z,-7.46
2022-12-18T09:32:30.353Z,-7.46
2022-12-18T09:33:30.325Z,-7.46
2022-12-18T09:34:30.318Z,-7.66
2022-12-18T09:35:30.327Z,-7.53
2022-12-18T09:36:30.296Z,-7.53
2022-12-18T09:37:30.350Z,-7.50
2022-12-18T09:38:30.278Z,-7.62
2022-12-18T09:39:30.252Z,-7.48
2022-12-18T09:40:30.262Z,-7.42
2022-12-18T09:41:30.356Z,-7.30
2022-12-18T09:42:30.298Z,-7.17
2022-12-18T09:43:30.199Z,-7.14
2022-12-18T09:44:30.272Z,-7.10
2022-12-18T09:45:30.636Z,-7.06
2022-12-18T09:46:30.234Z,-7.03
2022-12-18T09:47:30.209Z,-6.91
2022-12-18T09:48:30.185Z,-6.85
2022-12-18T09:49:30.156Z,-6.68
2022-12-18T09:50:30.137Z,-6.58
2022-12-18T09:51:30.210Z,-6.52
2022-12-18T09:52:30.131Z,-6.61
2022-12-18T09:53:30.113Z,-6.60
2022-12-18T09:54:30.153Z,-6.45
2022-12-18T09:55:36.599Z,-6.38
2022-12-18T09:56:32.183Z,-6.33
2022-12-18T09:57:30.059Z,-6.36
2022-12-18T09:58:30.110Z,-6.46
2022-12-18T09:59:30.087Z,-6.38
2022-12-18T10:00:30.033Z,-6.45
2022-12-18T10:01:38.782Z,-6.33
2022-12-18T10:02:32.193Z,-6.23
2022-12-18T10:03:30.019Z,-6.21
2022-12-18T10:04:30.044Z,-6.20
2022-12-18T10:05:30.034Z,-6.06
2022-12-18T10:06:30.015Z,-6.05
2022-12-18T10:07:29.963Z,-6.06
2022-12-18T10:08:30.023Z,-6.16
2022-12-18T10:09:29.945Z,-6.16
2022-12-18T10:10:29.943Z,-6.07
2022-12-18T10:11:29.940Z,-6.13
2022-12-18T10:12:30.079Z,-6.00
2022-12-18T10:13:29.894Z,-5.84
2022-12-18T10:14:29.919Z,-5.94
2022-12-18T10:15:29.982Z,-5.89
2022-12-18T10:16:29.877Z,-5.91
2022-12-18T10:17:29.889Z,-5.88
2022-12-18T10:18:29.894Z,-5.94
2022-12-18T10:19:29.840Z,-5.77
2022-12-18T10:20:29.829Z,-5.64
2022-12-18T10:21:29.843Z,-5.68
2022-12-18T10:22:29.843Z,-5.55
2022-12-18T10:23:29.802Z,-5.52
2022-12-18T10:24:29.786Z,-5.55
2022-12-18T10:25:29.823Z,-5.60
2022-12-18T10:26:29.781Z,-5.71
2022-12-18T10:27:29.750Z,-5.78
2022-12-18T10:28:29.869Z,-5.81
2022-12-18T10:29:29.791Z,-5.89
2022-12-18T10:30:29.736Z,-5.85
2022-12-18T10:31:29.752Z,-5.94
2022-12-18T10:32:29.801Z,-5.95
2022-12-18T10:33:29.674Z,-5.89
2022-12-18T10:34:29.680Z,-5.89
2022-12-18T10:35:29.693Z,-5.77
2022-12-18T10:36:29.666Z,-5.67
2022-12-18T10:37:29.648Z,-5.63
2022-12-18T10:38:29.631Z,-5.70
2022-12-18T10:39:29.651Z,-5.67
2022-12-18T10:40:29.616Z,-5.60
2022-12-18T10:41:29.747Z,-5.53
2022-12-18T10:42:29.623Z,-5.56
2022-12-18T10:43:29.564Z,-5.55
2022-12-18T10:44:29.677Z,-5.60
2022-12-18T10:45:29.581Z,-5.48
2022-12-18T10:46:29.659Z,-5.58
2022-12-18T10:47:29.559Z,-5.49
2022-12-18T10:48:29.560Z,-5.31
2022-12-18T10:49:29.520Z,-5.31
2022-12-18T10:50:47.163Z,-5.10
2022-12-18T10:51:31.881Z,-5.02
2022-12-18T10:52:29.494Z,-4.97
2022-12-18T10:53:29.473Z,-4.74
2022-12-18T10:54:30.455Z,-4.95
2022-12-18T10:55:29.475Z,-4.97
2022-12-18T10:56:29.457Z,-4.94
2022-12-18T10:57:29.422Z,-4.90
2022-12-18T10:58:29.432Z,-4.79
2022-12-18T10:59:29.435Z,-4.83
2022-12-18T11:00:29.510Z,-4.81
2022-12-18T11:01:29.508Z,-4.73
2022-12-18T11:02:29.601Z,-4.74
2022-12-18T11:03:29.479Z,-4.71
2022-12-18T11:04:29.389Z,-4.67
2022-12-18T11:05:29.378Z,-4.55
2022-12-18T11:06:29.343Z,-4.58
2022-12-18T11:07:29.315Z,-4.41
2022-12-18T11:08:29.306Z,-4.37
2022-12-18T11:09:29.329Z,-4.26
2022-12-18T11:10:29.459Z,-4.19
2022-12-18T11:11:29.278Z,-4.08
2022-12-18T11:12:29.295Z,-3.94
2022-12-18T11:13:29.255Z,-3.84
2022-12-18T11:14:29.269Z,-3.78
2022-12-18T11:15:29.244Z,-3.66
2022-12-18T11:16:29.406Z,-3.59
2022-12-18T11:17:29.194Z,-3.68
2022-12-18T11:18:29.201Z,-3.51
2022-12-18T11:19:29.226Z,-3.43
2022-12-18T11:20:29.192Z,-3.44
2022-12-18T11:21:29.197Z,-3.22
2022-12-18T11:22:29.173Z,-3.22
2022-12-18T11:23:29.175Z,-3.14
2022-12-18T11:24:29.161Z,-3.11
2022-12-18T11:25:33.195Z,-3.11
2022-12-18T11:26:31.141Z,-2.94
2022-12-18T11:27:29.094Z,-2.94
2022-12-18T11:28:29.155Z,-3.02
2022-12-18T11:29:29.118Z,-3.25
2022-12-18T11:30:29.088Z,-3.53
2022-12-18T11:31:29.247Z,-3.59
2022-12-18T11:32:29.155Z,-3.77
2022-12-18T11:33:29.079Z,-3.74
2022-12-18T11:34:30.173Z,-3.81
2022-12-18T11:35:30.048Z,-3.84
2022-12-18T11:36:29.013Z,-3.98
2022-12-18T11:37:29.023Z,-3.94
2022-12-18T11:38:29.005Z,-3.83
2022-12-18T11:39:28.971Z,-3.84
2022-12-18T11:40:28.998Z,-3.69
2022-12-18T11:41:29.005Z,-3.62
2022-12-18T11:42:28.964Z,-3.58
2022-12-18T11:43:28.930Z,-3.56
2022-12-18T11:44:28.960Z,-3.47
2022-12-18T11:45:28.907Z,-3.47
2022-12-18T11:46:28.964Z,-3.41
2022-12-18T11:47:28.964Z,-3.25
2022-12-18T11:48:28.972Z,-3.12
2022-12-18T11:49:28.858Z,-3.07
2022-12-18T11:50:29.878Z,-3.08
2022-12-18T11:51:28.883Z,-2.87
2022-12-18T11:52:28.828Z,-2.76
2022-12-18T11:53:28.858Z,-2.68
2022-12-18T11:54:28.867Z,-2.72
2022-12-18T11:55:28.795Z,-2.58
2022-12-18T11:56:28.813Z,-2.55
2022-12-18T11:57:28.821Z,-2.55
2022-12-18T11:58:31.534Z,-2.52
2022-12-18T11:59:29.757Z,-2.45
2022-12-18T12:00:28.798Z,-2.39
2022-12-18T12:01:28.809Z,-2.37
2022-12-18T12:02:28.931Z,-2.40
2022-12-18T12:03:28.713Z,-2.18
2022-12-18T12:04:34.729Z,-2.23
2022-12-18T12:05:29.815Z,-2.22
2022-12-18T12:06:28.734Z,-2.22
2022-12-18T12:07:28.672Z,-2.07
2022-12-18T12:08:28.716Z,-2.02
2022-12-18T12:09:28.682Z,-1.96
2022-12-18T12:10:28.665Z,-1.90
2022-12-18T12:11:28.685Z,-1.82
2022-12-18T12:12:28.652Z,-2.07
2022-12-18T12:13:28.621Z,-1.89
2022-12-18T12:14:28.640Z,-2.00
2022-12-18T12:15:28.708Z,-2.17
2022-12-18T12:16:28.626Z,-2.14
2022-12-18T12:17:28.611Z,-2.11
2022-12-18T12:18:28.610Z,-2.00
2022-12-18T12:19:28.578Z,-2.07
2022-12-18T12:20:31.487Z,-1.86
2022-12-18T12:21:29.655Z,-1.97
2022-12-18T12:22:28.593Z,-1.97
2022-12-18T12:23:28.558Z,-1.90
2022-12-18T12:24:28.543Z,-1.96
2022-12-18T12:25:28.497Z,-1.82
2022-12-18T12:26:28.497Z,-1.89
2022-12-18T12:27:28.503Z,-1.81
2022-12-18T12:28:28.496Z,-1.75
2022-12-18T12:29:28.443Z,-1.74
2022-12-18T12:30:28.485Z,-1.64
2022-12-18T12:31:28.490Z,-1.63
2022-12-18T12:32:28.446Z,-1.66
2022-12-18T12:33:28.416Z,-1.78
2022-12-18T12:34:28.440Z,-1.69
2022-12-18T12:35:28.418Z,-1.66
2022-12-18T12:36:28.391Z,-1.69
2022-12-18T12:37:28.465Z,-1.68
2022-12-18T12:38:28.379Z,-1.75
2022-12-18T12:39:28.378Z,-1.75
2022-12-18T12:41:00.529Z,-1.74
2022-12-18T12:41:30.376Z,-1.69
2022-12-18T12:42:28.342Z,-1.81
2022-12-18T12:43:28.308Z,-1.66
2022-12-18T12:44:28.313Z,-1.74
2022-12-18T12:45:28.344Z,-1.69
2022-12-18T12:46:28.284Z,-1.74
2022-12-18T12:47:28.251Z,-1.57
2022-12-18T12:48:28.296Z,-1.60
2022-12-18T12:49:28.232Z,-1.54